sensor_id;sensor_type;location;lat;lon;timestamp;pressure;altitude;pressure_sealevel;temperature;humidity
9281;BME280;4679;47.966;7.958;2024-02-21T07:24:06;97770.69;;;3.29;84.01
9281;BME280;4679;47.966;7.958;2024-02-21T07:26:08;97757.03;;;3.34;83.89
9281;BME280;4679;47.966;7.958;2024-02-21T07:28:09;97759.28;;;3.37;84.22
9281;BME280;4679;47.966;7.958;2024-02-21T07:30:11;97768.25;;;3.42;84.52
9281;BME280;4679;47.966;7.958;2024-02-21T07:32:13;97761.28;;;3.49;83.89
9281;BME280;4679;47.966;7.958;2024-02-21T07:34:15;97749.84;;;3.57;83.95
9281;BME280;4679;47.966;7.958;2024-02-21T07:36:28;97741.91;;;3.65;84.19
9281;BME280;4679;47.966;7.958;2024-02-21T07:38:30;97748.03;;;3.72;83.68
9281;BME280;4679;47.966;7.958;2024-02-21T07:40:33;97742.47;;;3.82;83.43
9281;BME280;4679;47.966;7.958;2024-02-21T07:42:35;97741.75;;;3.88;83.44
9281;BME280;4679;47.966;7.958;2024-02-21T07:44:36;97746.25;;;3.94;83.16
9281;BME280;4679;47.966;7.958;2024-02-21T07:46:38;97726.13;;;4.01;83.17
9281;BME280;4679;47.966;7.958;2024-02-21T07:48:39;97733.88;;;4.09;83.18
9281;BME280;4679;47.966;7.958;2024-02-21T07:50:41;97726.69;;;4.18;82.80
9281;BME280;4679;47.966;7.958;2024-02-21T07:52:43;97738.09;;;4.25;83.40
9281;BME280;4679;47.966;7.958;2024-02-21T07:54:43;97736.13;;;4.34;83.05
9281;BME280;4679;47.966;7.958;2024-02-21T07:56:46;97738.41;;;4.43;82.60
9281;BME280;4679;47.966;7.958;2024-02-21T07:58:48;97734.25;;;4.49;82.64
9281;BME280;4679;47.966;7.958;2024-02-21T08:00:50;97743.38;;;4.53;82.67
9281;BME280;4679;47.966;7.958;2024-02-21T08:02:51;97745.22;;;4.59;82.26
9281;BME280;4679;47.966;7.958;2024-02-21T08:04:53;97748.72;;;4.66;82.51
9281;BME280;4679;47.966;7.958;2024-02-21T08:06:55;97740.09;;;4.72;82.38
9281;BME280;4679;47.966;7.958;2024-02-21T08:08:56;97744.75;;;4.77;82.90
9281;BME280;4679;47.966;7.958;2024-02-21T08:10:57;97749.44;;;4.81;81.93
9281;BME280;4679;47.966;7.958;2024-02-21T08:13:00;97735.75;;;4.86;82.01
9281;BME280;4679;47.966;7.958;2024-02-21T08:15:03;97740.22;;;4.92;81.90
9281;BME280;4679;47.966;7.958;2024-02-21T08:17:04;97744.09;;;4.96;82.21
9281;BME280;4679;47.966;7.958;2024-02-21T08:19:05;97745.16;;;5.02;81.48
9281;BME280;4679;47.966;7.958;2024-02-21T08:21:07;97739.09;;;5.08;81.65
9281;BME280;4679;47.966;7.958;2024-02-21T08:23:08;97735.91;;;5.12;81.54
9281;BME280;4679;47.966;7.958;2024-02-21T08:25:10;97733.72;;;5.16;81.90
9281;BME280;4679;47.966;7.958;2024-02-21T08:27:11;97733.31;;;5.19;81.95
9281;BME280;4679;47.966;7.958;2024-02-21T08:29:14;97727.66;;;5.22;82.01
9281;BME280;4679;47.966;7.958;2024-02-21T08:31:18;97726.25;;;5.26;81.97
9281;BME280;4679;47.966;7.958;2024-02-21T08:33:20;97734.41;;;5.31;81.04
9281;BME280;4679;47.966;7.958;2024-02-21T08:35:25;97732.41;;;5.40;81.80
9281;BME280;4679;47.966;7.958;2024-02-21T08:37:27;97725.56;;;5.45;80.55
9281;BME280;4679;47.966;7.958;2024-02-21T08:39:28;97715.84;;;5.52;81.46
9281;BME280;4679;47.966;7.958;2024-02-21T08:41:30;97711.44;;;5.59;80.41
9281;BME280;4679;47.966;7.958;2024-02-21T08:43:32;97710.63;;;5.65;81.44
9281;BME280;4679;47.966;7.958;2024-02-21T08:45:37;97701.94;;;5.72;81.35
9281;BME280;4679;47.966;7.958;2024-02-21T08:47:39;97702.78;;;5.79;81.19
9281;BME280;4679;47.966;7.958;2024-02-21T08:49:41;97706.25;;;5.86;80.88
9281;BME280;4679;47.966;7.958;2024-02-21T08:51:43;97702.25;;;5.90;80.99
9281;BME280;4679;47.966;7.958;2024-02-21T08:53:45;97694.56;;;5.95;80.95
9281;BME280;4679;47.966;7.958;2024-02-21T08:55:47;97690.91;;;6.03;80.33
9281;BME280;4679;47.966;7.958;2024-02-21T08:57:48;97699.66;;;6.10;80.89
9281;BME280;4679;47.966;7.958;2024-02-21T08:59:50;97696.19;;;6.16;79.90
9281;BME280;4679;47.966;7.958;2024-02-21T09:01:53;97688.31;;;6.22;80.11
9281;BME280;4679;47.966;7.958;2024-02-21T09:03:54;97692.75;;;6.28;79.25
9281;BME280;4679;47.966;7.958;2024-02-21T09:05:57;97682.22;;;6.35;79.81
9281;BME280;4679;47.966;7.958;2024-02-21T09:07:58;97684.06;;;6.41;79.69
9281;BME280;4679;47.966;7.958;2024-02-21T09:10:00;97680.41;;;6.49;79.94
9281;BME280;4679;47.966;7.958;2024-02-21T09:12:02;97673.31;;;6.56;78.93
9281;BME280;4679;47.966;7.958;2024-02-21T09:14:06;97673.91;;;6.64;79.74
9281;BME280;4679;47.966;7.958;2024-02-21T09:16:07;97671.03;;;6.72;79.55
9281;BME280;4679;47.966;7.958;2024-02-21T09:18:10;97660.50;;;6.79;78.22
9281;BME280;4679;47.966;7.958;2024-02-21T09:20:12;97655.78;;;6.88;78.35
9281;BME280;4679;47.966;7.958;2024-02-21T09:22:16;97651.13;;;6.96;78.61
9281;BME280;4679;47.966;7.958;2024-02-21T09:24:18;97648.03;;;7.06;78.87
9281;BME280;4679;47.966;7.958;2024-02-21T09:26:18;97652.69;;;7.11;78.22
9281;BME280;4679;47.966;7.958;2024-02-21T09:28:20;97648.63;;;7.15;78.04
9281;BME280;4679;47.966;7.958;2024-02-21T09:30:22;97652.03;;;7.22;77.55
9281;BME280;4679;47.966;7.958;2024-02-21T09:32:24;97648.97;;;7.31;77.00
9281;BME280;4679;47.966;7.958;2024-02-21T09:34:28;97651.16;;;7.41;77.01
9281;BME280;4679;47.966;7.958;2024-02-21T09:36:30;97649.31;;;7.48;76.45
9281;BME280;4679;47.966;7.958;2024-02-21T09:38:32;97647.44;;;7.55;76.54
9281;BME280;4679;47.966;7.958;2024-02-21T09:40:33;97644.13;;;7.66;76.54
9281;BME280;4679;47.966;7.958;2024-02-21T09:42:40;97649.56;;;7.78;76.24
9281;BME280;4679;47.966;7.958;2024-02-21T09:44:43;97647.47;;;7.87;75.52
9281;BME280;4679;47.966;7.958;2024-02-21T09:46:52;97650.66;;;7.95;75.51
9281;BME280;4679;47.966;7.958;2024-02-21T09:49:04;97645.72;;;8.05;75.11
9281;BME280;4679;47.966;7.958;2024-02-21T09:51:11;97648.69;;;8.16;74.95
9281;BME280;4679;47.966;7.958;2024-02-21T09:53:14;97651.06;;;8.24;74.59
9281;BME280;4679;47.966;7.958;2024-02-21T09:55:17;97648.19;;;8.32;74.50
9281;BME280;4679;47.966;7.958;2024-02-21T09:57:20;97642.03;;;8.38;74.27
9281;BME280;4679;47.966;7.958;2024-02-21T09:59:22;97636.09;;;8.42;74.09
9281;BME280;4679;47.966;7.958;2024-02-21T10:01:25;97637.66;;;8.50;74.04
9281;BME280;4679;47.966;7.958;2024-02-21T10:03:26;97627.38;;;8.60;73.65
9281;BME280;4679;47.966;7.958;2024-02-21T10:05:28;97627.34;;;8.67;73.94
9281;BME280;4679;47.966;7.958;2024-02-21T10:07:31;97625.63;;;8.72;73.61
9281;BME280;4679;47.966;7.958;2024-02-21T10:09:32;97623.16;;;8.77;73.50
9281;BME280;4679;47.966;7.958;2024-02-21T10:11:34;97619.97;;;8.87;73.16
9281;BME280;4679;47.966;7.958;2024-02-21T10:13:36;97619.69;;;8.95;73.26
9281;BME280;4679;47.966;7.958;2024-02-21T10:15:38;97609.03;;;9.02;72.86
9281;BME280;4679;47.966;7.958;2024-02-21T10:17:40;97613.44;;;9.08;72.22
9281;BME280;4679;47.966;7.958;2024-02-21T10:19:42;97602.19;;;9.12;72.62
9281;BME280;4679;47.966;7.958;2024-02-21T10:21:58;97599.00;;;9.22;72.25
9281;BME280;4679;47.966;7.958;2024-02-21T10:24:01;97588.34;;;9.29;71.49
9281;BME280;4679;47.966;7.958;2024-02-21T10:26:07;97587.09;;;9.31;71.62
9281;BME280;4679;47.966;7.958;2024-02-21T10:28:12;97587.97;;;9.43;71.58
9281;BME280;4679;47.966;7.958;2024-02-21T10:30:14;97579.00;;;9.56;70.55
9281;BME280;4679;47.966;7.958;2024-02-21T10:32:17;97575.59;;;9.67;70.27
9281;BME280;4679;47.966;7.958;2024-02-21T10:34:18;97579.06;;;9.79;70.99
9281;BME280;4679;47.966;7.958;2024-02-21T10:36:20;97578.53;;;9.89;69.87
9281;BME280;4679;47.966;7.958;2024-02-21T10:38:22;97566.19;;;9.95;70.59
9281;BME280;4679;47.966;7.958;2024-02-21T10:40:27;97562.66;;;10.01;69.53
9281;BME280;4679;47.966;7.958;2024-02-21T10:42:31;97558.06;;;10.08;69.87
9281;BME280;4679;47.966;7.958;2024-02-21T10:44:37;97561.78;;;10.18;69.24
9281;BME280;4679;47.966;7.958;2024-02-21T10:46:40;97552.44;;;10.28;69.57
9281;BME280;4679;47.966;7.958;2024-02-21T10:48:44;97548.63;;;10.35;69.38
9281;BME280;4679;47.966;7.958;2024-02-21T10:50:53;97550.47;;;10.46;69.21
9281;BME280;4679;47.966;7.958;2024-02-21T10:53:05;97548.16;;;10.50;68.93
9281;BME280;4679;47.966;7.958;2024-02-21T10:55:15;97541.09;;;10.55;68.50
9281;BME280;4679;47.966;7.958;2024-02-21T10:57:19;97536.84;;;10.66;68.31
9281;BME280;4679;47.966;7.958;2024-02-21T10:59:23;97528.72;;;10.73;67.86
9281;BME280;4679;47.966;7.958;2024-02-21T11:01:28;97526.78;;;10.80;67.29
9281;BME280;4679;47.966;7.958;2024-02-21T11:03:31;97521.06;;;10.88;68.18
9281;BME280;4679;47.966;7.958;2024-02-21T11:05:34;97520.16;;;10.94;67.24
9281;BME280;4679;47.966;7.958;2024-02-21T11:07:37;97511.22;;;11.00;67.04
9281;BME280;4679;47.966;7.958;2024-02-21T11:09:39;97509.13;;;11.02;67.16
9281;BME280;4679;47.966;7.958;2024-02-21T11:11:41;97506.34;;;11.09;67.04
9281;BME280;4679;47.966;7.958;2024-02-21T11:13:46;97508.53;;;11.12;67.30
9281;BME280;4679;47.966;7.958;2024-02-21T11:15:47;97495.03;;;11.13;67.05
9281;BME280;4679;47.966;7.958;2024-02-21T11:17:53;97487.81;;;11.25;65.75
9281;BME280;4679;47.966;7.958;2024-02-21T11:19:56;97490.41;;;11.37;65.83
9281;BME280;4679;47.966;7.958;2024-02-21T11:21:59;97484.38;;;11.42;66.15
9281;BME280;4679;47.966;7.958;2024-02-21T11:24:01;97484.53;;;11.52;65.74
9281;BME280;4679;47.966;7.958;2024-02-21T11:26:06;97471.25;;;11.52;64.72
9281;BME280;4679;47.966;7.958;2024-02-21T11:28:08;97477.63;;;11.51;64.69
9281;BME280;4679;47.966;7.958;2024-02-21T11:30:11;97477.94;;;11.54;64.33
9281;BME280;4679;47.966;7.958;2024-02-21T11:32:15;97468.47;;;11.58;64.48
9281;BME280;4679;47.966;7.958;2024-02-21T11:34:19;97455.88;;;11.54;63.39
9281;BME280;4679;47.966;7.958;2024-02-21T11:36:26;97456.78;;;11.59;63.38
9281;BME280;4679;47.966;7.958;2024-02-21T11:38:28;97458.31;;;11.72;62.83
9281;BME280;4679;47.966;7.958;2024-02-21T11:40:30;97449.47;;;11.83;62.85
9281;BME280;4679;47.966;7.958;2024-02-21T11:42:31;97439.78;;;11.94;62.96
9281;BME280;4679;47.966;7.958;2024-02-21T11:44:34;97437.75;;;12.01;62.98
9281;BME280;4679;47.966;7.958;2024-02-21T11:46:39;97433.72;;;11.98;63.32
9281;BME280;4679;47.966;7.958;2024-02-21T11:48:41;97428.84;;;11.90;62.77
9281;BME280;4679;47.966;7.958;2024-02-21T11:50:52;97446.25;;;11.81;62.59
9281;BME280;4679;47.966;7.958;2024-02-21T11:52:55;97427.16;;;11.84;62.35
9281;BME280;4679;47.966;7.958;2024-02-21T11:54:56;97422.63;;;11.85;62.04
9281;BME280;4679;47.966;7.958;2024-02-21T11:57:04;97420.22;;;11.83;61.72
9281;BME280;4679;47.966;7.958;2024-02-21T11:59:06;97415.47;;;11.85;61.53
9281;BME280;4679;47.966;7.958;2024-02-21T12:01:07;97412.81;;;11.85;61.91
9281;BME280;4679;47.966;7.958;2024-02-21T12:03:10;97413.13;;;11.89;61.19
9281;BME280;4679;47.966;7.958;2024-02-21T12:05:11;97399.41;;;11.97;60.89
9281;BME280;4679;47.966;7.958;2024-02-21T12:07:14;97400.84;;;12.05;61.19
9281;BME280;4679;47.966;7.958;2024-02-21T12:09:16;97399.16;;;11.98;60.74
9281;BME280;4679;47.966;7.958;2024-02-21T12:11:19;97400.13;;;11.92;60.39
9281;BME280;4679;47.966;7.958;2024-02-21T12:13:23;97410.22;;;11.90;60.58
9281;BME280;4679;47.966;7.958;2024-02-21T12:15:24;97398.47;;;11.86;59.92
9281;BME280;4679;47.966;7.958;2024-02-21T12:17:26;97397.41;;;11.87;60.18
9281;BME280;4679;47.966;7.958;2024-02-21T12:19:30;97396.97;;;11.95;59.81
9281;BME280;4679;47.966;7.958;2024-02-21T12:21:32;97388.13;;;12.07;58.88
9281;BME280;4679;47.966;7.958;2024-02-21T12:23:38;97386.38;;;12.17;59.00
9281;BME280;4679;47.966;7.958;2024-02-21T12:25:39;97373.88;;;12.18;59.03
9281;BME280;4679;47.966;7.958;2024-02-21T12:27:41;97378.88;;;12.14;58.69
9281;BME280;4679;47.966;7.958;2024-02-21T12:29:42;97366.31;;;12.10;58.44
9281;BME280;4679;47.966;7.958;2024-02-21T12:31:44;97365.59;;;12.14;58.20
9281;BME280;4679;47.966;7.958;2024-02-21T12:33:46;97364.53;;;12.15;58.23
9281;BME280;4679;47.966;7.958;2024-02-21T12:35:48;97357.53;;;12.09;57.57
9281;BME280;4679;47.966;7.958;2024-02-21T12:37:50;97361.00;;;12.10;58.17
9281;BME280;4679;47.966;7.958;2024-02-21T12:39:51;97353.03;;;12.10;57.77
9281;BME280;4679;47.966;7.958;2024-02-21T12:41:52;97349.63;;;12.14;56.96
9281;BME280;4679;47.966;7.958;2024-02-21T12:43:54;97351.59;;;12.24;57.08
9281;BME280;4679;47.966;7.958;2024-02-21T12:45:55;97338.84;;;12.26;56.61
9281;BME280;4679;47.966;7.958;2024-02-21T12:47:56;97334.66;;;12.30;57.18
9281;BME280;4679;47.966;7.958;2024-02-21T12:50:00;97332.97;;;12.24;56.41
9281;BME280;4679;47.966;7.958;2024-02-21T12:52:05;97331.50;;;12.33;56.60
9281;BME280;4679;47.966;7.958;2024-02-21T12:54:07;97320.03;;;12.32;56.15
9281;BME280;4679;47.966;7.958;2024-02-21T12:56:11;97312.88;;;12.33;56.48
9281;BME280;4679;47.966;7.958;2024-02-21T12:58:13;97306.19;;;12.30;55.99
9281;BME280;4679;47.966;7.958;2024-02-21T13:00:16;97304.13;;;12.38;56.39
9281;BME280;4679;47.966;7.958;2024-02-21T13:02:18;97302.53;;;12.37;56.05
9281;BME280;4679;47.966;7.958;2024-02-21T13:04:20;97291.91;;;12.37;56.30
9281;BME280;4679;47.966;7.958;2024-02-21T13:06:22;97286.03;;;12.40;55.48
9281;BME280;4679;47.966;7.958;2024-02-21T13:08:25;97279.72;;;12.46;55.48
9281;BME280;4679;47.966;7.958;2024-02-21T13:10:26;97276.66;;;12.59;55.16
9281;BME280;4679;47.966;7.958;2024-02-21T13:12:28;97266.06;;;12.64;55.60
9281;BME280;4679;47.966;7.958;2024-02-21T13:14:30;97269.19;;;12.56;55.50
9281;BME280;4679;47.966;7.958;2024-02-21T13:16:33;97266.50;;;12.51;55.58
9281;BME280;4679;47.966;7.958;2024-02-21T13:18:39;97273.13;;;12.48;55.25
9281;BME280;4679;47.966;7.958;2024-02-21T13:20:43;97262.47;;;12.48;55.07
9281;BME280;4679;47.966;7.958;2024-02-21T13:22:44;97253.13;;;12.46;54.87
9281;BME280;4679;47.966;7.958;2024-02-21T13:24:47;97247.56;;;12.47;55.00
9281;BME280;4679;47.966;7.958;2024-02-21T13:26:49;97254.47;;;12.48;54.78
9281;BME280;4679;47.966;7.958;2024-02-21T13:28:50;97260.34;;;12.50;55.01
9281;BME280;4679;47.966;7.958;2024-02-21T13:30:51;97251.84;;;12.53;54.64
9281;BME280;4679;47.966;7.958;2024-02-21T13:32:53;97244.16;;;12.57;54.64
9281;BME280;4679;47.966;7.958;2024-02-21T13:34:56;97241.81;;;12.60;54.54
9281;BME280;4679;47.966;7.958;2024-02-21T13:37:00;97236.72;;;12.59;54.46
9281;BME280;4679;47.966;7.958;2024-02-21T13:39:01;97234.31;;;12.57;54.01
9281;BME280;4679;47.966;7.958;2024-02-21T13:41:06;97221.56;;;12.59;54.19
9281;BME280;4679;47.966;7.958;2024-02-21T13:43:07;97226.34;;;12.57;54.18
9281;BME280;4679;47.966;7.958;2024-02-21T13:45:09;97224.78;;;12.61;53.93
9281;BME280;4679;47.966;7.958;2024-02-21T13:47:12;97215.00;;;12.67;53.90
9281;BME280;4679;47.966;7.958;2024-02-21T13:49:15;97213.13;;;12.67;53.87
9281;BME280;4679;47.966;7.958;2024-02-21T13:51:17;97207.50;;;12.64;53.73
9281;BME280;4679;47.966;7.958;2024-02-21T13:53:20;97196.84;;;12.64;53.64
9281;BME280;4679;47.966;7.958;2024-02-21T13:55:23;97194.22;;;12.69;53.43
9281;BME280;4679;47.966;7.958;2024-02-21T13:57:27;97199.38;;;12.81;53.16
9281;BME280;4679;47.966;7.958;2024-02-21T13:59:29;97189.09;;;12.94;53.01
9281;BME280;4679;47.966;7.958;2024-02-21T14:01:30;97189.63;;;12.96;52.72
9281;BME280;4679;47.966;7.958;2024-02-21T14:03:33;97182.19;;;12.98;52.75
9281;BME280;4679;47.966;7.958;2024-02-21T14:05:34;97176.06;;;13.03;52.75
9281;BME280;4679;47.966;7.958;2024-02-21T14:07:35;97176.06;;;12.98;52.66
9281;BME280;4679;47.966;7.958;2024-02-21T14:09:36;97174.66;;;12.90;52.87
9281;BME280;4679;47.966;7.958;2024-02-21T14:11:38;97173.31;;;12.88;52.90
9281;BME280;4679;47.966;7.958;2024-02-21T14:13:41;97164.03;;;12.90;52.77
9281;BME280;4679;47.966;7.958;2024-02-21T14:15:44;97169.31;;;12.85;52.69
9281;BME280;4679;47.966;7.958;2024-02-21T14:17:46;97161.28;;;12.80;52.82
9281;BME280;4679;47.966;7.958;2024-02-21T14:19:47;97168.44;;;12.75;52.97
9281;BME280;4679;47.966;7.958;2024-02-21T14:21:49;97162.00;;;12.71;52.47
9281;BME280;4679;47.966;7.958;2024-02-21T14:23:51;97150.84;;;12.74;52.69
9281;BME280;4679;47.966;7.958;2024-02-21T14:25:53;97146.09;;;12.76;52.58
9281;BME280;4679;47.966;7.958;2024-02-21T14:27:54;97144.72;;;12.73;52.89
9281;BME280;4679;47.966;7.958;2024-02-21T14:29:57;97141.81;;;12.75;52.26
9281;BME280;4679;47.966;7.958;2024-02-21T14:31:59;97140.25;;;12.84;52.38
9281;BME280;4679;47.966;7.958;2024-02-21T14:34:00;97136.59;;;12.90;52.38
9281;BME280;4679;47.966;7.958;2024-02-21T14:36:03;97128.88;;;12.93;52.20
9281;BME280;4679;47.966;7.958;2024-02-21T14:38:04;97129.69;;;12.94;52.24
9281;BME280;4679;47.966;7.958;2024-02-21T14:40:07;97131.28;;;12.95;52.01
9281;BME280;4679;47.966;7.958;2024-02-21T14:42:08;97119.84;;;12.94;52.31
9281;BME280;4679;47.966;7.958;2024-02-21T14:44:10;97121.69;;;12.94;52.39
9281;BME280;4679;47.966;7.958;2024-02-21T14:46:13;97119.84;;;12.94;52.45
9281;BME280;4679;47.966;7.958;2024-02-21T14:48:15;97115.31;;;12.95;52.67
9281;BME280;4679;47.966;7.958;2024-02-21T14:50:16;97110.00;;;12.95;52.53
9281;BME280;4679;47.966;7.958;2024-02-21T14:52:18;97116.91;;;12.96;52.55
9281;BME280;4679;47.966;7.958;2024-02-21T14:54:21;97113.47;;;12.95;52.38
9281;BME280;4679;47.966;7.958;2024-02-21T14:56:23;97096.13;;;12.93;52.50
9281;BME280;4679;47.966;7.958;2024-02-21T14:58:24;97102.50;;;12.92;52.48
9281;BME280;4679;47.966;7.958;2024-02-21T15:00:26;97100.91;;;12.91;52.56
9281;BME280;4679;47.966;7.958;2024-02-21T15:02:31;97104.38;;;12.91;52.75
9281;BME280;4679;47.966;7.958;2024-02-21T15:04:33;97097.19;;;12.92;52.70
9281;BME280;4679;47.966;7.958;2024-02-21T15:06:34;97083.31;;;12.90;52.58
9281;BME280;4679;47.966;7.958;2024-02-21T15:08:37;97085.44;;;12.88;52.79
9281;BME280;4679;47.966;7.958;2024-02-21T15:10:39;97092.88;;;12.86;52.78
9281;BME280;4679;47.966;7.958;2024-02-21T15:12:39;97082.75;;;12.83;52.90
9281;BME280;4679;47.966;7.958;2024-02-21T15:14:41;97082.22;;;12.81;52.95
9281;BME280;4679;47.966;7.958;2024-02-21T15:16:43;97075.53;;;12.78;53.10
9281;BME280;4679;47.966;7.958;2024-02-21T15:18:46;97067.25;;;12.75;53.50
9281;BME280;4679;47.966;7.958;2024-02-21T15:20:48;97069.38;;;12.73;53.29
9281;BME280;4679;47.966;7.958;2024-02-21T15:22:50;97068.31;;;12.74;53.16
9281;BME280;4679;47.966;7.958;2024-02-21T15:24:50;97061.38;;;12.73;53.47
9281;BME280;4679;47.966;7.958;2024-02-21T15:26:53;97057.13;;;12.66;53.54
9281;BME280;4679;47.966;7.958;2024-02-21T15:28:54;97059.75;;;12.61;53.21
9281;BME280;4679;47.966;7.958;2024-02-21T15:30:56;97052.53;;;12.57;53.99
9281;BME280;4679;47.966;7.958;2024-02-21T15:32:58;97058.34;;;12.54;53.83
9281;BME280;4679;47.966;7.958;2024-02-21T15:35:03;97049.56;;;12.53;53.64
9281;BME280;4679;47.966;7.958;2024-02-21T15:37:06;97050.66;;;12.52;54.20
9281;BME280;4679;47.966;7.958;2024-02-21T15:39:09;97041.56;;;12.48;53.72
9281;BME280;4679;47.966;7.958;2024-02-21T15:41:11;97030.88;;;12.43;54.37
9281;BME280;4679;47.966;7.958;2024-02-21T15:43:12;97023.66;;;12.39;54.02
9281;BME280;4679;47.966;7.958;2024-02-21T15:45:14;97018.88;;;12.36;54.21
9281;BME280;4679;47.966;7.958;2024-02-21T15:47:15;97022.03;;;12.32;54.61
9281;BME280;4679;47.966;7.958;2024-02-21T15:49:19;97019.91;;;12.29;54.75
9281;BME280;4679;47.966;7.958;2024-02-21T15:51:22;97017.47;;;12.28;54.71
9281;BME280;4679;47.966;7.958;2024-02-21T15:53:23;97010.56;;;12.27;54.43
9281;BME280;4679;47.966;7.958;2024-02-21T15:55:25;97012.66;;;12.20;54.54
9281;BME280;4679;47.966;7.958;2024-02-21T15:57:29;97003.84;;;12.14;54.52
9281;BME280;4679;47.966;7.958;2024-02-21T15:59:32;97000.06;;;12.10;54.90
9281;BME280;4679;47.966;7.958;2024-02-21T16:01:33;96997.16;;;12.07;55.26
9281;BME280;4679;47.966;7.958;2024-02-21T16:03:35;96990.72;;;12.03;55.16
9281;BME280;4679;47.966;7.958;2024-02-21T16:05:37;96981.91;;;11.97;54.95
9281;BME280;4679;47.966;7.958;2024-02-21T16:07:40;96981.59;;;11.93;54.78
9281;BME280;4679;47.966;7.958;2024-02-21T16:09:41;96982.38;;;11.89;54.73
9281;BME280;4679;47.966;7.958;2024-02-21T16:11:44;96988.22;;;11.86;55.35
9281;BME280;4679;47.966;7.958;2024-02-21T16:13:46;96981.00;;;11.81;54.72
9281;BME280;4679;47.966;7.958;2024-02-21T16:15:48;96975.88;;;11.75;55.23
9281;BME280;4679;47.966;7.958;2024-02-21T16:17:50;96973.97;;;11.70;55.20
9281;BME280;4679;47.966;7.958;2024-02-21T16:19:51;96979.22;;;11.65;55.27
9281;BME280;4679;47.966;7.958;2024-02-21T16:21:53;96973.09;;;11.59;54.53
9281;BME280;4679;47.966;7.958;2024-02-21T16:23:56;96966.69;;;11.55;54.48
9281;BME280;4679;47.966;7.958;2024-02-21T16:28:09;96961.06;;;11.52;54.87
9281;BME280;4679;47.966;7.958;2024-02-21T16:30:11;96961.28;;;11.45;55.28
9281;BME280;4679;47.966;7.958;2024-02-21T16:32:13;96962.53;;;11.38;55.16
9281;BME280;4679;47.966;7.958;2024-02-21T16:34:14;96959.88;;;11.38;55.00
9281;BME280;4679;47.966;7.958;2024-02-21T16:36:22;96961.97;;;11.36;55.02
9281;BME280;4679;47.966;7.958;2024-02-21T16:38:23;96958.78;;;11.34;54.86
9281;BME280;4679;47.966;7.958;2024-02-21T16:40:26;96950.22;;;11.26;55.27
9281;BME280;4679;47.966;7.958;2024-02-21T16:42:28;96949.66;;;11.24;55.51
9281;BME280;4679;47.966;7.958;2024-02-21T16:44:30;96951.75;;;11.22;54.54
9281;BME280;4679;47.966;7.958;2024-02-21T16:46:33;96953.03;;;11.15;54.75
9281;BME280;4679;47.966;7.958;2024-02-21T16:48:35;96951.69;;;11.12;55.11
9281;BME280;4679;47.966;7.958;2024-02-21T16:50:35;96948.22;;;11.12;54.67
9281;BME280;4679;47.966;7.958;2024-02-21T16:52:37;96949.28;;;11.11;55.70
9281;BME280;4679;47.966;7.958;2024-02-21T16:54:38;96951.63;;;11.07;55.03
9281;BME280;4679;47.966;7.958;2024-02-21T16:56:40;96947.28;;;11.01;54.59
9281;BME280;4679;47.966;7.958;2024-02-21T16:58:41;96944.84;;;10.95;55.38
9281;BME280;4679;47.966;7.958;2024-02-21T17:00:44;96956.47;;;10.88;55.15
9281;BME280;4679;47.966;7.958;2024-02-21T17:02:47;96948.75;;;10.87;55.72
9281;BME280;4679;47.966;7.958;2024-02-21T17:04:49;96951.41;;;10.87;55.72
9281;BME280;4679;47.966;7.958;2024-02-21T17:06:52;96936.25;;;10.82;55.27
9281;BME280;4679;47.966;7.958;2024-02-21T17:08:53;96943.09;;;10.78;56.10
9281;BME280;4679;47.966;7.958;2024-02-21T17:10:55;96944.38;;;10.76;54.88
9281;BME280;4679;47.966;7.958;2024-02-21T17:12:57;96930.00;;;10.72;55.04
9281;BME280;4679;47.966;7.958;2024-02-21T17:14:59;96935.28;;;10.67;55.60
9281;BME280;4679;47.966;7.958;2024-02-21T17:17:02;96927.31;;;10.67;55.24
9281;BME280;4679;47.966;7.958;2024-02-21T17:19:04;96920.41;;;10.66;55.24
9281;BME280;4679;47.966;7.958;2024-02-21T17:21:06;96924.59;;;10.62;55.91
9281;BME280;4679;47.966;7.958;2024-02-21T17:23:08;96918.72;;;10.60;55.64
9281;BME280;4679;47.966;7.958;2024-02-21T17:25:10;96916.56;;;10.56;55.82
9281;BME280;4679;47.966;7.958;2024-02-21T17:27:11;96910.16;;;10.52;54.87
9281;BME280;4679;47.966;7.958;2024-02-21T17:29:13;96907.44;;;10.47;55.79
9281;BME280;4679;47.966;7.958;2024-02-21T17:31:15;96893.63;;;10.45;55.66
9281;BME280;4679;47.966;7.958;2024-02-21T17:33:18;96904.00;;;10.47;56.28
9281;BME280;4679;47.966;7.958;2024-02-21T17:35:20;96905.53;;;10.43;55.30
9281;BME280;4679;47.966;7.958;2024-02-21T17:37:21;96893.56;;;10.40;55.44
9281;BME280;4679;47.966;7.958;2024-02-21T17:39:22;96899.91;;;10.39;55.42
9281;BME280;4679;47.966;7.958;2024-02-21T17:41:23;96886.94;;;10.38;56.41
9281;BME280;4679;47.966;7.958;2024-02-21T17:43:25;96889.75;;;10.31;55.08
9281;BME280;4679;47.966;7.958;2024-02-21T17:45:26;96894.75;;;10.28;56.19
9281;BME280;4679;47.966;7.958;2024-02-21T17:47:28;96889.44;;;10.28;56.16
9281;BME280;4679;47.966;7.958;2024-02-21T17:49:32;96891.28;;;10.27;55.68
9281;BME280;4679;47.966;7.958;2024-02-21T17:51:33;96888.06;;;10.25;56.43
9281;BME280;4679;47.966;7.958;2024-02-21T17:53:35;96891.72;;;10.19;55.85
9281;BME280;4679;47.966;7.958;2024-02-21T17:55:36;96881.13;;;10.19;56.56
9281;BME280;4679;47.966;7.958;2024-02-21T17:57:37;96887.44;;;10.18;55.33
9281;BME280;4679;47.966;7.958;2024-02-21T17:59:39;96873.63;;;10.16;55.70
9281;BME280;4679;47.966;7.958;2024-02-21T18:01:41;96866.72;;;10.15;56.57
9281;BME280;4679;47.966;7.958;2024-02-21T18:03:42;96849.09;;;10.26;56.61
9281;BME280;4679;47.966;7.958;2024-02-21T18:05:45;96845.47;;;10.32;55.70
9281;BME280;4679;47.966;7.958;2024-02-21T18:07:46;96844.13;;;10.29;55.42
9281;BME280;4679;47.966;7.958;2024-02-21T18:09:48;96846.75;;;10.29;55.65
9281;BME280;4679;47.966;7.958;2024-02-21T18:11:50;96842.50;;;10.28;56.38
9281;BME280;4679;47.966;7.958;2024-02-21T18:13:52;96854.47;;;10.31;55.61
9281;BME280;4679;47.966;7.958;2024-02-21T18:15:57;96857.94;;;10.31;55.57
9281;BME280;4679;47.966;7.958;2024-02-21T18:17:59;96858.00;;;10.36;55.20
9281;BME280;4679;47.966;7.958;2024-02-21T18:20:00;96855.63;;;10.40;55.39
9281;BME280;4679;47.966;7.958;2024-02-21T18:22:05;96856.50;;;10.45;55.23
9281;BME280;4679;47.966;7.958;2024-02-21T18:24:07;96836.31;;;10.44;55.85
9281;BME280;4679;47.966;7.958;2024-02-21T18:26:08;96852.94;;;10.35;55.93
9281;BME280;4679;47.966;7.958;2024-02-21T18:28:10;96832.94;;;10.27;55.89
9281;BME280;4679;47.966;7.958;2024-02-21T18:30:12;96842.00;;;10.31;55.44
9281;BME280;4679;47.966;7.958;2024-02-21T18:32:15;96841.47;;;10.29;56.20
9281;BME280;4679;47.966;7.958;2024-02-21T18:34:17;96847.78;;;10.23;56.15